createdAt,value
2019-01-31T00:00:05.841Z,24.3
2019-01-31T00:02:05.610Z,24.3
2019-01-31T00:04:05.300Z,24.3
2019-01-31T00:06:07.651Z,24.3
2019-01-31T00:08:05.340Z,24.3
2019-01-31T00:10:08.075Z,24.3
2019-01-31T00:12:05.985Z,24.3
2019-01-31T00:14:05.184Z,24.3
2019-01-31T00:16:05.948Z,24.3
2019-01-31T00:18:05.908Z,24.3
2019-01-31T00:20:05.564Z,24.3
2019-01-31T00:22:05.305Z,24.3
2019-01-31T00:24:05.945Z,24.3
2019-01-31T00:26:05.614Z,24.1
2019-01-31T00:28:05.349Z,24.3
2019-01-31T00:30:05.023Z,24.3
2019-01-31T00:32:05.706Z,24.1
2019-01-31T00:34:05.364Z,24.2
2019-01-31T00:36:05.058Z,24.3
2019-01-31T00:38:11.087Z,24.1
2019-01-31T00:40:05.502Z,24.1
2019-01-31T00:42:05.667Z,24.2
2019-01-31T00:44:05.384Z,24.3
2019-01-31T00:46:05.612Z,24.1
2019-01-31T00:48:05.469Z,24.3
2019-01-31T00:50:05.698Z,24.2
2019-01-31T00:52:05.970Z,24.2
2019-01-31T00:54:05.754Z,24.1
2019-01-31T00:56:05.487Z,24.1
2019-01-31T00:58:05.215Z,24.1
2019-01-31T01:00:05.965Z,24.2
2019-01-31T01:02:08.310Z,24.2
2019-01-31T01:04:06.003Z,24.2
2019-01-31T01:06:05.764Z,24.2
2019-01-31T01:08:06.061Z,24.2
2019-01-31T01:10:05.245Z,24.2
2019-01-31T01:12:05.912Z,24.2
2019-01-31T01:14:05.806Z,24.2
2019-01-31T01:16:05.512Z,24.2
2019-01-31T01:18:05.387Z,24.2
2019-01-31T01:20:05.107Z,24.2
2019-01-31T01:22:05.806Z,24.2
2019-01-31T01:24:13.159Z,24.2
2019-01-31T01:26:13.506Z,24.2
2019-01-31T01:28:05.201Z,24.2
2019-01-31T01:30:05.931Z,24.2
2019-01-31T01:32:05.710Z,24.1
2019-01-31T01:34:07.989Z,24.2
2019-01-31T01:36:05.277Z,24.2
2019-01-31T01:38:05.934Z,24.1
2019-01-31T01:40:05.617Z,24.2
2019-01-31T01:42:13.423Z,24.1
2019-01-31T01:44:05.051Z,24.1
2019-01-31T01:46:05.689Z,24.1
2019-01-31T01:48:05.358Z,24.2
2019-01-31T01:50:05.071Z,24.2
2019-01-31T01:52:10.392Z,24.2
2019-01-31T01:54:05.092Z,24.2
2019-01-31T01:56:06.109Z,24.2
2019-01-31T01:58:13.390Z,24.2
2019-01-31T02:00:10.218Z,24.2
2019-01-31T02:02:05.918Z,24.1
2019-01-31T02:04:08.085Z,24.1
2019-01-31T02:06:06.045Z,24.1
2019-01-31T02:08:06.172Z,24.1
2019-01-31T02:10:05.204Z,24.1
2019-01-31T02:12:05.560Z,24.1
2019-01-31T02:14:05.269Z,24.1
2019-01-31T02:16:06.086Z,24.1
2019-01-31T02:18:05.573Z,24.1
2019-01-31T02:20:05.308Z,24.1
2019-01-31T02:22:06.185Z,24
2019-01-31T02:24:05.405Z,24.2
2019-01-31T02:26:07.641Z,24.2
2019-01-31T02:28:05.358Z,24.1
2019-01-31T02:30:05.311Z,24.1
2019-01-31T02:32:05.562Z,24.2
2019-01-31T02:34:05.288Z,24.1
2019-01-31T02:36:07.574Z,24.1
2019-01-31T02:38:05.303Z,24
2019-01-31T02:40:05.533Z,24
2019-01-31T02:42:05.272Z,24.1
2019-01-31T02:44:05.011Z,24
2019-01-31T02:46:10.745Z,24
2019-01-31T02:48:05.434Z,24
2019-01-31T02:50:05.087Z,24
2019-01-31T02:52:05.818Z,24
2019-01-31T02:54:15.617Z,24
2019-01-31T02:56:05.366Z,24
2019-01-31T02:58:05.647Z,24
2019-01-31T03:00:05.036Z,24
2019-01-31T03:02:08.290Z,24.1
2019-01-31T03:04:07.619Z,24
2019-01-31T03:06:05.261Z,24
2019-01-31T03:08:10.583Z,24
2019-01-31T03:10:05.288Z,24
2019-01-31T03:12:08.550Z,24
2019-01-31T03:14:10.872Z,24
2019-01-31T03:16:05.626Z,24
2019-01-31T03:18:05.152Z,24
2019-01-31T03:20:05.959Z,24
2019-01-31T03:22:05.269Z,24
2019-01-31T03:24:07.646Z,23.9
2019-01-31T03:26:05.849Z,23.9
2019-01-31T03:28:05.502Z,23.9
2019-01-31T03:30:05.271Z,23.9
2019-01-31T03:32:06.036Z,23.9
2019-01-31T03:34:05.694Z,23.9
2019-01-31T03:36:05.361Z,24
2019-01-31T03:38:05.050Z,23.9
2019-01-31T03:40:08.257Z,23.9
2019-01-31T03:42:08.040Z,23.9
2019-01-31T03:44:13.304Z,23.9
2019-01-31T03:46:05.555Z,23.9
2019-01-31T03:48:05.258Z,23.9
2019-01-31T03:50:07.467Z,23.9
2019-01-31T03:52:05.182Z,23.9
2019-01-31T03:54:05.974Z,23.9
2019-01-31T03:56:05.692Z,23.8
2019-01-31T03:58:05.418Z,23.9
2019-01-31T04:00:07.874Z,23.8
2019-01-31T04:02:05.532Z,23.9
2019-01-31T04:04:05.750Z,23.9
2019-01-31T04:06:08.022Z,23.9
2019-01-31T04:08:07.853Z,23.9
2019-01-31T04:10:05.085Z,23.8
2019-01-31T04:12:05.769Z,23.7
2019-01-31T04:14:08.067Z,23.7
2019-01-31T04:16:05.766Z,23.7
2019-01-31T04:18:07.743Z,24
2019-01-31T04:20:05.377Z,23.8
2019-01-31T04:22:05.102Z,23.8
2019-01-31T04:24:08.405Z,23.9
2019-01-31T04:26:05.635Z,23.7
2019-01-31T04:28:05.383Z,24
2019-01-31T04:30:05.254Z,23.9
2019-01-31T04:32:05.562Z,23.8
2019-01-31T04:34:05.206Z,23.9
2019-01-31T04:36:05.916Z,23.9
2019-01-31T04:38:10.830Z,23.7
2019-01-31T04:40:05.529Z,23.7
2019-01-31T04:42:08.297Z,23.7
2019-01-31T04:44:05.954Z,23.7
2019-01-31T04:46:10.848Z,23.8
2019-01-31T04:48:05.529Z,23.8
2019-01-31T04:50:05.310Z,24
2019-01-31T04:52:05.520Z,24
2019-01-31T04:54:07.795Z,24
2019-01-31T04:56:08.057Z,24.1
2019-01-31T04:58:05.885Z,23.9
2019-01-31T05:00:08.197Z,24.1
2019-01-31T05:02:05.946Z,24
2019-01-31T05:04:05.931Z,24
2019-01-31T05:06:08.226Z,24.1
2019-01-31T05:08:06.133Z,24.1
2019-01-31T05:10:08.410Z,24.1
2019-01-31T05:12:05.693Z,24.1
2019-01-31T05:14:07.898Z,24.1
2019-01-31T05:16:05.634Z,24.2
2019-01-31T05:18:08.084Z,24.1
2019-01-31T05:20:05.563Z,24.1
2019-01-31T05:22:12.824Z,24.1
2019-01-31T05:24:13.236Z,24.1
2019-01-31T05:26:05.190Z,24.1
2019-01-31T05:28:05.993Z,24.1
2019-01-31T05:30:08.268Z,24.1
2019-01-31T05:32:05.026Z,24.1
2019-01-31T05:34:05.733Z,24.1
2019-01-31T05:36:05.416Z,24.1
2019-01-31T05:38:05.075Z,24.1
2019-01-31T05:40:05.787Z,24
2019-01-31T05:42:05.458Z,24
2019-01-31T05:44:05.692Z,24.1
2019-01-31T05:46:05.597Z,23.9
2019-01-31T05:48:05.597Z,24.1
2019-01-31T05:50:11.072Z,24
2019-01-31T05:52:05.793Z,24
2019-01-31T05:54:13.083Z,23.9
2019-01-31T05:56:06.017Z,23.9
2019-01-31T05:58:05.755Z,23.9
2019-01-31T06:00:05.497Z,24
2019-01-31T06:02:05.224Z,23.9
2019-01-31T06:04:05.917Z,24
2019-01-31T06:06:08.179Z,23.8
2019-01-31T06:08:23.170Z,23.8
2019-01-31T06:10:05.507Z,23.8
2019-01-31T06:12:05.210Z,23.8
2019-01-31T06:14:05.978Z,23.8
2019-01-31T06:16:08.211Z,23.8
2019-01-31T06:18:05.068Z,23.8
2019-01-31T06:20:13.319Z,23.8
2019-01-31T06:22:08.548Z,23.8
2019-01-31T06:24:05.709Z,23.8
2019-01-31T06:26:05.420Z,23.8
2019-01-31T06:28:05.335Z,23.8
2019-01-31T06:30:07.646Z,23.8
2019-01-31T06:32:05.135Z,23.8
2019-01-31T06:34:05.913Z,23.8
2019-01-31T06:36:05.657Z,23.8
2019-01-31T06:38:05.334Z,23.9
2019-01-31T06:40:04.994Z,23.7
2019-01-31T06:42:05.841Z,23.7
2019-01-31T06:44:10.803Z,23.7
2019-01-31T06:46:05.556Z,23.7
2019-01-31T06:48:06.933Z,23.7
2019-01-31T06:50:05.893Z,23.7
2019-01-31T06:52:05.620Z,23.7
2019-01-31T06:54:08.099Z,23.7
2019-01-31T06:56:05.922Z,23.7
2019-01-31T06:58:05.604Z,23.7
2019-01-31T07:00:07.837Z,23.7
2019-01-31T07:02:05.543Z,23.7
2019-01-31T07:04:05.299Z,23.7
2019-01-31T07:06:06.030Z,23.8
2019-01-31T07:08:05.802Z,23.8
2019-01-31T07:10:08.069Z,23.9
2019-01-31T07:12:05.449Z,23.9
2019-01-31T07:14:05.318Z,23.9
2019-01-31T07:16:08.540Z,24
2019-01-31T07:18:06.032Z,23.8
2019-01-31T07:20:05.754Z,24
2019-01-31T07:22:05.569Z,24
2019-01-31T07:24:05.244Z,24
2019-01-31T07:26:05.922Z,24
2019-01-31T07:28:05.677Z,23.9
2019-01-31T07:30:08.484Z,24
2019-01-31T07:32:05.168Z,24
2019-01-31T07:34:05.871Z,24
2019-01-31T07:36:05.662Z,24
2019-01-31T07:38:05.420Z,24
2019-01-31T07:40:10.725Z,23.9
2019-01-31T07:42:05.370Z,23.9
2019-01-31T07:44:05.264Z,23.9
2019-01-31T07:46:08.461Z,23.9
2019-01-31T07:48:10.190Z,23.8
2019-01-31T07:50:05.908Z,23.9
2019-01-31T07:52:05.595Z,23.9
2019-01-31T07:54:05.424Z,23.8
2019-01-31T07:56:07.800Z,23.9
2019-01-31T07:58:05.558Z,23.9
2019-01-31T08:00:10.374Z,23.9
2019-01-31T08:02:05.105Z,23.7
2019-01-31T08:04:05.858Z,23.7
2019-01-31T08:06:15.193Z,23.7
2019-01-31T08:08:05.882Z,23.7
2019-01-31T08:10:05.508Z,23.7
2019-01-31T08:12:05.218Z,23.7
2019-01-31T08:14:05.910Z,23.7
2019-01-31T08:16:05.630Z,23.7
2019-01-31T08:18:05.522Z,23.7
2019-01-31T08:20:08.322Z,23.8
2019-01-31T08:22:05.999Z,23.8
2019-01-31T08:24:10.119Z,23.7
2019-01-31T08:26:12.919Z,23.8
2019-01-31T08:28:05.576Z,23.6
2019-01-31T08:30:05.298Z,23.7
2019-01-31T08:32:05.980Z,23.8
2019-01-31T08:34:05.656Z,23.8
2019-01-31T08:36:05.382Z,23.8
2019-01-31T08:38:05.086Z,23.7
2019-01-31T08:40:08.453Z,23.8
2019-01-31T08:42:05.193Z,23.8
2019-01-31T08:44:05.859Z,23.8
2019-01-31T08:46:05.661Z,23.8
2019-01-31T08:48:05.389Z,23.7
2019-01-31T08:50:05.056Z,23.9
2019-01-31T08:52:10.309Z,23.9
2019-01-31T08:54:18.622Z,23.9
2019-01-31T08:56:05.397Z,23.9
2019-01-31T08:58:05.569Z,24
2019-01-31T09:00:05.758Z,23.8
2019-01-31T09:02:06.005Z,23.8
2019-01-31T09:04:05.711Z,23.8
2019-01-31T09:06:07.989Z,24
2019-01-31T09:08:05.770Z,24
2019-01-31T09:10:07.960Z,24.2
2019-01-31T09:12:15.754Z,24.2
2019-01-31T09:14:08.010Z,24.1
2019-01-31T09:16:05.799Z,24.1
2019-01-31T09:18:08.270Z,24.2
2019-01-31T09:20:05.015Z,24.2
2019-01-31T09:22:05.701Z,24.1
2019-01-31T09:24:05.352Z,24.3
2019-01-31T09:26:05.049Z,24.3
2019-01-31T09:28:05.259Z,24.2
2019-01-31T09:30:05.899Z,24.2
2019-01-31T09:32:05.604Z,24.2
2019-01-31T09:34:05.254Z,24.1
2019-01-31T09:36:05.967Z,24
2019-01-31T09:38:05.716Z,24
2019-01-31T09:40:10.524Z,24.1
2019-01-31T09:42:08.548Z,24.1
2019-01-31T09:44:15.499Z,24.1
2019-01-31T09:46:05.272Z,24.1
2019-01-31T09:48:08.485Z,24.1
2019-01-31T09:50:05.147Z,24.1
2019-01-31T09:52:05.824Z,24.1
2019-01-31T09:54:05.604Z,24
2019-01-31T09:56:05.278Z,24
2019-01-31T09:58:05.989Z,24
2019-01-31T10:00:08.224Z,23.8
2019-01-31T10:02:05.919Z,23.8
2019-01-31T10:04:07.646Z,23.9
2019-01-31T10:06:11.344Z,23.8
2019-01-31T10:08:05.327Z,23.8
2019-01-31T10:10:05.289Z,23.7
2019-01-31T10:12:06.118Z,23.7
2019-01-31T10:14:05.981Z,23.8
2019-01-31T10:16:05.310Z,23.8
2019-01-31T10:18:06.461Z,23.8
2019-01-31T10:20:05.509Z,23.6
2019-01-31T10:22:05.428Z,23.7
2019-01-31T10:24:05.618Z,23.8
2019-01-31T10:26:05.943Z,23.7
2019-01-31T10:28:08.078Z,23.7
2019-01-31T10:30:05.316Z,23.7
2019-01-31T10:32:04.990Z,23.5
2019-01-31T10:34:05.187Z,23.6
2019-01-31T10:36:06.316Z,23.6
2019-01-31T10:38:07.647Z,23.8
2019-01-31T10:40:07.861Z,23.6
2019-01-31T10:42:05.759Z,23.8
2019-01-31T10:44:05.937Z,23.8
2019-01-31T10:46:05.828Z,23.6
2019-01-31T10:48:05.722Z,23.8
2019-01-31T10:50:05.415Z,23.6
2019-01-31T10:52:05.168Z,23.7
2019-01-31T10:54:05.819Z,23.6
2019-01-31T10:56:05.512Z,23.6
2019-01-31T10:58:05.409Z,23.6
2019-01-31T11:00:08.423Z,23.7
2019-01-31T11:02:08.175Z,23.7
2019-01-31T11:04:05.835Z,23.7
2019-01-31T11:06:08.105Z,23.7
2019-01-31T11:08:08.307Z,23.6
2019-01-31T11:10:05.013Z,23.6
2019-01-31T11:12:05.700Z,23.6
2019-01-31T11:14:05.867Z,23.6
2019-01-31T11:16:05.069Z,23.7
2019-01-31T11:18:05.032Z,23.6
2019-01-31T11:20:08.177Z,23.6
2019-01-31T11:22:18.029Z,23.6
2019-01-31T11:24:05.740Z,23.6
2019-01-31T11:26:15.511Z,23.6
2019-01-31T11:28:05.260Z,23.6
2019-01-31T11:30:08.506Z,23.6
2019-01-31T11:32:05.748Z,23.6
2019-01-31T11:34:05.457Z,23.6
2019-01-31T11:36:05.735Z,23.6
2019-01-31T11:38:05.602Z,23.6
2019-01-31T11:40:05.281Z,23.6
2019-01-31T11:42:13.557Z,23.6
2019-01-31T11:44:05.235Z,23.6
2019-01-31T11:46:08.474Z,23.6
2019-01-31T11:48:07.762Z,23.6
2019-01-31T11:50:05.490Z,23.6
2019-01-31T11:52:05.172Z,23.6
2019-01-31T11:54:08.375Z,23.7
2019-01-31T11:56:05.148Z,23.7
2019-01-31T11:58:05.346Z,23.6
2019-01-31T12:00:05.066Z,23.5
2019-01-31T12:02:07.813Z,23.7
2019-01-31T12:04:05.455Z,23.5
2019-01-31T12:06:05.175Z,23.5
2019-01-31T12:08:05.857Z,23.5
2019-01-31T12:10:05.524Z,23.7
2019-01-31T12:12:08.376Z,23.5
2019-01-31T12:14:05.287Z,23.5
2019-01-31T12:16:05.769Z,23.5
2019-01-31T12:18:13.290Z,23.5
2019-01-31T12:20:12.595Z,23.5
2019-01-31T12:22:05.244Z,23.5
2019-01-31T12:24:16.858Z,23.5
2019-01-31T12:26:06.136Z,23.5
2019-01-31T12:28:08.422Z,23.5
2019-01-31T12:30:05.177Z,23.6
2019-01-31T12:32:13.495Z,23.5
2019-01-31T12:34:05.592Z,23.5
2019-01-31T12:36:07.853Z,23.5
2019-01-31T12:38:05.548Z,23.5
2019-01-31T12:40:05.199Z,23.6
2019-01-31T12:42:08.651Z,23.8
2019-01-31T12:44:06.747Z,23.6
2019-01-31T12:46:05.462Z,23.6
2019-01-31T12:48:07.659Z,23.7
2019-01-31T12:50:05.333Z,23.7
2019-01-31T12:52:05.121Z,23.7
2019-01-31T12:54:05.874Z,23.7
2019-01-31T12:56:10.231Z,23.7
2019-01-31T12:58:06.122Z,23.7
2019-01-31T13:00:05.333Z,23.7
2019-01-31T13:02:08.554Z,23.6
2019-01-31T13:04:05.276Z,23.7
2019-01-31T13:06:15.671Z,23.6
2019-01-31T13:08:06.337Z,23.6
2019-01-31T13:10:06.008Z,23.7
2019-01-31T13:12:05.933Z,23.7
2019-01-31T13:14:08.174Z,23.6
2019-01-31T13:16:05.389Z,23.6
2019-01-31T13:18:10.492Z,23.7
2019-01-31T13:20:05.227Z,23.7
2019-01-31T13:22:05.905Z,23.7
2019-01-31T13:24:13.207Z,23.7
2019-01-31T13:26:05.441Z,23.7
2019-01-31T13:28:05.099Z,23.7
2019-01-31T13:30:05.315Z,23.5
2019-01-31T13:32:10.084Z,23.5
2019-01-31T13:34:10.979Z,23.6
2019-01-31T13:36:08.178Z,23.5
2019-01-31T13:38:05.822Z,23.5
2019-01-31T13:40:05.504Z,23.6
2019-01-31T13:42:05.207Z,23.6
2019-01-31T13:44:05.889Z,23.6
2019-01-31T13:46:13.212Z,23.6
2019-01-31T13:48:10.990Z,23.6
2019-01-31T13:50:10.368Z,23.6
2019-01-31T13:52:05.099Z,23.6
2019-01-31T13:54:05.324Z,23.6
2019-01-31T13:56:07.831Z,23.6
2019-01-31T13:58:10.569Z,23.6
2019-01-31T14:00:05.442Z,23.5
2019-01-31T14:02:13.043Z,23.5
2019-01-31T14:04:05.787Z,23.5
2019-01-31T14:06:08.010Z,23.5
2019-01-31T14:08:05.639Z,23.5
2019-01-31T14:10:05.359Z,23.5
2019-01-31T14:12:05.036Z,23.5
2019-01-31T14:14:09.742Z,23.5
2019-01-31T14:16:05.447Z,23.7
2019-01-31T14:18:07.888Z,23.5
2019-01-31T14:20:07.976Z,23.5
2019-01-31T14:22:13.539Z,23.5
2019-01-31T14:24:07.773Z,23.5
2019-01-31T14:26:05.469Z,23.5
2019-01-31T14:28:05.186Z,23.6
2019-01-31T14:30:05.928Z,23.6
2019-01-31T14:32:05.603Z,23.5
2019-01-31T14:34:05.510Z,23.6
2019-01-31T14:36:05.309Z,23.5
2019-01-31T14:38:10.386Z,23.6
2019-01-31T14:40:11.113Z,23.6
2019-01-31T14:42:05.331Z,23.6
2019-01-31T14:44:05.098Z,23.4
2019-01-31T14:46:05.842Z,23.6
2019-01-31T14:48:07.621Z,23.4
2019-01-31T14:50:05.319Z,23.4
2019-01-31T14:52:05.046Z,23.5
2019-01-31T14:54:08.290Z,23.5
2019-01-31T14:56:05.990Z,23.4
2019-01-31T14:58:05.679Z,23.6
2019-01-31T15:00:08.366Z,23.5
2019-01-31T15:02:05.396Z,23.5
2019-01-31T15:04:05.093Z,23.5
2019-01-31T15:06:05.730Z,23.5
2019-01-31T15:08:05.921Z,23.3
2019-01-31T15:10:05.651Z,23.5
2019-01-31T15:12:05.392Z,23.5
2019-01-31T15:14:07.727Z,23.5
2019-01-31T15:16:05.539Z,23.4
2019-01-31T15:18:05.440Z,23.5
2019-01-31T15:20:05.626Z,23.3
2019-01-31T15:22:05.303Z,23.5
2019-01-31T15:24:05.070Z,23.5
2019-01-31T15:26:08.331Z,23.5
2019-01-31T15:28:05.717Z,23.3
2019-01-31T15:30:05.361Z,23.3
2019-01-31T15:32:05.296Z,23.3
2019-01-31T15:34:06.013Z,23.4
2019-01-31T15:36:05.691Z,23.4
2019-01-31T15:38:10.433Z,23.4
2019-01-31T15:40:10.370Z,23.4
2019-01-31T15:42:05.065Z,23.5
2019-01-31T15:44:08.297Z,23.6
2019-01-31T15:46:06.382Z,23.6
2019-01-31T15:48:11.247Z,23.7
2019-01-31T15:50:08.049Z,23.7
2019-01-31T15:52:05.736Z,23.7
2019-01-31T15:54:08.014Z,23.6
2019-01-31T15:56:05.730Z,23.6
2019-01-31T15:58:05.358Z,23.8
2019-01-31T16:00:06.054Z,23.8
2019-01-31T16:02:08.443Z,23.8
2019-01-31T16:04:06.492Z,23.8
2019-01-31T16:06:08.748Z,23.7
2019-01-31T16:08:09.221Z,23.7
2019-01-31T16:10:05.730Z,23.7
2019-01-31T16:12:08.247Z,23.7
2019-01-31T16:14:06.504Z,23.7
2019-01-31T16:16:11.634Z,23.7
2019-01-31T16:18:07.096Z,23.7
2019-01-31T16:20:05.528Z,23.6
2019-01-31T16:22:07.838Z,23.7
2019-01-31T16:24:12.434Z,23.7
2019-01-31T16:26:06.482Z,23.7
2019-01-31T16:28:09.727Z,23.7
2019-01-31T16:30:06.343Z,23.7
2019-01-31T16:32:08.416Z,23.5
2019-01-31T16:34:07.571Z,23.5
2019-01-31T16:36:06.473Z,23.5
2019-01-31T16:38:08.866Z,23.5
2019-01-31T16:40:05.893Z,23.6
2019-01-31T16:42:05.693Z,23.6
2019-01-31T16:44:05.719Z,23.6
2019-01-31T16:46:11.662Z,23.4
2019-01-31T16:48:06.873Z,23.4
2019-01-31T16:50:05.421Z,23.4
2019-01-31T16:52:08.854Z,23.5
2019-01-31T16:54:09.368Z,23.4
2019-01-31T16:56:08.122Z,23.5
2019-01-31T16:58:07.297Z,23.3
2019-01-31T17:00:05.927Z,23.5
2019-01-31T17:02:13.492Z,23.3
2019-01-31T17:04:11.639Z,23.5
2019-01-31T17:06:11.080Z,23.5
2019-01-31T17:08:13.806Z,23.5
2019-01-31T17:10:07.329Z,23.6
2019-01-31T17:12:06.917Z,23.6
2019-01-31T17:14:08.834Z,23.6
2019-01-31T17:16:08.999Z,23.5
2019-01-31T17:18:05.745Z,23.6
2019-01-31T17:20:07.000Z,23.6
2019-01-31T17:22:12.320Z,23.6
2019-01-31T17:24:05.761Z,23.6
2019-01-31T17:26:07.289Z,23.6
2019-01-31T17:28:11.881Z,23.6
2019-01-31T17:30:11.375Z,23.7
2019-01-31T17:32:06.116Z,23.7
2019-01-31T17:34:06.862Z,23.7
2019-01-31T17:36:06.847Z,23.5
2019-01-31T17:38:08.371Z,23.7
2019-01-31T17:40:06.778Z,23.8
2019-01-31T17:42:06.552Z,23.7
2019-01-31T17:44:09.064Z,23.7
2019-01-31T17:46:06.721Z,23.7
2019-01-31T17:48:05.842Z,23.7
2019-01-31T17:50:07.253Z,23.8
2019-01-31T17:52:07.604Z,23.8
2019-01-31T17:54:09.945Z,23.8
2019-01-31T17:56:06.717Z,23.9
2019-01-31T17:58:08.993Z,23.9
2019-01-31T18:00:09.711Z,24
2019-01-31T18:02:05.294Z,23.9
2019-01-31T18:04:05.485Z,23.9
2019-01-31T18:06:05.371Z,23.9
2019-01-31T18:08:05.079Z,24.1
2019-01-31T18:10:05.066Z,24
2019-01-31T18:12:05.841Z,24
2019-01-31T18:14:05.102Z,24.2
2019-01-31T18:16:08.521Z,24.1
2019-01-31T18:18:05.484Z,24.1
2019-01-31T18:20:05.177Z,24.1
2019-01-31T18:22:05.908Z,24.1
2019-01-31T18:24:05.588Z,24.1
2019-01-31T18:26:05.291Z,24.2
2019-01-31T18:28:08.022Z,24.2
2019-01-31T18:30:05.875Z,24.2
2019-01-31T18:32:05.826Z,24.2
2019-01-31T18:34:05.524Z,24.4
2019-01-31T18:36:05.763Z,24.5
2019-01-31T18:38:05.576Z,24.5
2019-01-31T18:40:05.247Z,24.5
2019-01-31T18:42:08.084Z,24.5
2019-01-31T18:44:05.831Z,24.5
2019-01-31T18:46:05.501Z,24.4
2019-01-31T18:48:05.571Z,24.4
2019-01-31T18:50:15.550Z,24.4
2019-01-31T18:52:08.997Z,24.4
2019-01-31T18:54:09.476Z,24.2
2019-01-31T18:56:06.025Z,24.2
2019-01-31T18:58:05.711Z,24.2
2019-01-31T19:00:05.604Z,24.2
2019-01-31T19:02:05.314Z,24.2
2019-01-31T19:04:07.767Z,24.3
2019-01-31T19:06:05.467Z,24.3
2019-01-31T19:08:09.386Z,24.3
2019-01-31T19:10:05.150Z,24.3
2019-01-31T19:12:08.411Z,24.3
2019-01-31T19:14:05.087Z,24.3
2019-01-31T19:16:06.287Z,24.3
2019-01-31T19:18:06.682Z,24.3
2019-01-31T19:20:05.394Z,24.4
2019-01-31T19:22:05.201Z,24.4
2019-01-31T19:24:05.888Z,24.4
2019-01-31T19:26:05.881Z,24.3
2019-01-31T19:28:08.126Z,24.3
2019-01-31T19:30:05.823Z,24.5
2019-01-31T19:32:15.854Z,24.3
2019-01-31T19:34:05.711Z,24.3
2019-01-31T19:36:05.561Z,24.5
2019-01-31T19:38:05.842Z,24.5
2019-01-31T19:40:07.569Z,24.5
2019-01-31T19:42:07.764Z,24.5
2019-01-31T19:44:05.469Z,24.5
2019-01-31T19:46:19.554Z,24.5
2019-01-31T19:48:06.895Z,24.5
2019-01-31T19:50:05.541Z,24.7
2019-01-31T19:52:07.871Z,24.6
2019-01-31T19:54:06.568Z,24.6
2019-01-31T19:56:05.330Z,24.6
2019-01-31T19:58:05.240Z,24.6
2019-01-31T20:00:05.934Z,24.6
2019-01-31T20:02:05.620Z,24.5
2019-01-31T20:04:07.943Z,24.7
2019-01-31T20:06:05.489Z,24.5
2019-01-31T20:08:13.217Z,24.6
2019-01-31T20:10:05.595Z,24.6
2019-01-31T20:12:05.285Z,24.6
2019-01-31T20:14:06.030Z,24.4
2019-01-31T20:16:05.792Z,24.4
2019-01-31T20:18:05.682Z,24.5
2019-01-31T20:20:05.519Z,24.5
2019-01-31T20:22:05.724Z,24.5
2019-01-31T20:24:08.133Z,24.7
2019-01-31T20:26:05.819Z,24.7
2019-01-31T20:28:05.773Z,24.5
2019-01-31T20:30:05.459Z,24.6
2019-01-31T20:32:07.668Z,24.6
2019-01-31T20:34:08.087Z,24.6
2019-01-31T20:36:05.869Z,24.5
2019-01-31T20:38:05.591Z,24.6
2019-01-31T20:40:08.070Z,24.6
2019-01-31T20:42:05.273Z,24.6
2019-01-31T20:44:05.974Z,24.6
2019-01-31T20:46:05.763Z,24.6
2019-01-31T20:48:05.529Z,24.6
2019-01-31T20:50:10.287Z,24.4
2019-01-31T20:52:11.976Z,24.6
2019-01-31T20:54:08.217Z,24.5
2019-01-31T20:56:06.075Z,24.6
2019-01-31T20:58:08.342Z,25.9
2019-01-31T21:00:10.081Z,27.2
2019-01-31T21:02:05.911Z,27.1
2019-01-31T21:04:08.363Z,26.9
2019-01-31T21:06:05.126Z,26.9
2019-01-31T21:08:07.028Z,26.8
2019-01-31T21:10:05.572Z,26.6
2019-01-31T21:12:07.987Z,26.6
2019-01-31T21:14:06.887Z,26.6
2019-01-31T21:16:05.721Z,26.6
2019-01-31T21:18:10.937Z,26.6
2019-01-31T21:20:05.905Z,26.6
2019-01-31T21:22:06.299Z,26.6
2019-01-31T21:24:07.009Z,26.7
2019-01-31T21:26:05.885Z,26.7
2019-01-31T21:28:05.573Z,26.8
2019-01-31T21:30:05.264Z,26.8
2019-01-31T21:32:05.965Z,26.7
2019-01-31T21:34:05.902Z,27
2019-01-31T21:36:05.616Z,27
2019-01-31T21:38:07.833Z,27.2
2019-01-31T21:40:05.565Z,27
2019-01-31T21:42:08.415Z,27.4
2019-01-31T21:44:05.681Z,27.4
2019-01-31T21:46:05.916Z,27.4
2019-01-31T21:48:06.060Z,27.3
2019-01-31T21:50:05.211Z,27.4
2019-01-31T21:52:05.076Z,27.4
2019-01-31T21:54:05.987Z,27.4
2019-01-31T21:56:10.294Z,27.2
2019-01-31T21:58:06.224Z,27.2
2019-01-31T22:00:05.979Z,27.3
2019-01-31T22:02:05.826Z,27.1
2019-01-31T22:04:05.340Z,27.1
2019-01-31T22:06:05.801Z,27
2019-01-31T22:08:11.001Z,26.9
2019-01-31T22:10:05.223Z,26.9
2019-01-31T22:12:05.933Z,26.9
2019-01-31T22:14:09.430Z,26.9
2019-01-31T22:16:15.168Z,26.7
2019-01-31T22:18:05.337Z,26.7
2019-01-31T22:20:06.461Z,26.6
2019-01-31T22:22:05.129Z,26.6
2019-01-31T22:26:09.960Z,26.5
2019-01-31T22:28:14.225Z,26.5
2019-01-31T22:30:05.398Z,26.4
2019-01-31T22:32:05.144Z,26.3
2019-01-31T22:34:07.609Z,26.2
2019-01-31T22:36:05.568Z,26.2
2019-01-31T22:38:15.672Z,26.1
2019-01-31T22:40:06.588Z,26.1
2019-01-31T22:42:05.310Z,26.2
2019-01-31T22:44:06.006Z,26.1
2019-01-31T22:46:05.687Z,26.1
2019-01-31T22:48:06.279Z,25.9
2019-01-31T22:50:06.027Z,25.9
2019-01-31T22:52:05.698Z,25.8
2019-01-31T22:54:08.254Z,25.8
2019-01-31T22:56:11.178Z,25.8
2019-01-31T22:58:08.440Z,25.8
2019-01-31T23:00:05.362Z,25.8
2019-01-31T23:02:05.014Z,25.7
2019-01-31T23:04:05.794Z,25.7
2019-01-31T23:06:08.058Z,25.7
2019-01-31T23:08:05.447Z,25.6
2019-01-31T23:10:10.415Z,25.5
2019-01-31T23:12:10.340Z,25.5
2019-01-31T23:14:05.118Z,25.5
2019-01-31T23:16:05.869Z,25.5
2019-01-31T23:18:11.004Z,25.5
2019-01-31T23:20:05.951Z,25.5
2019-01-31T23:22:08.209Z,25.4
2019-01-31T23:24:06.182Z,25.4
2019-01-31T23:26:05.677Z,25.5
2019-01-31T23:28:08.427Z,25.4
2019-01-31T23:30:05.355Z,25.4
2019-01-31T23:32:05.111Z,25.4
2019-01-31T23:34:08.532Z,25.4
2019-01-31T23:36:05.817Z,25.4
2019-01-31T23:38:05.463Z,25.4
2019-01-31T23:40:05.138Z,25.2
2019-01-31T23:42:06.023Z,25.4
2019-01-31T23:44:05.702Z,25.4
2019-01-31T23:46:05.392Z,25.4
2019-01-31T23:48:07.698Z,25.2
2019-01-31T23:50:05.435Z,25.4
2019-01-31T23:52:07.673Z,25.2
2019-01-31T23:54:05.353Z,25.2
2019-01-31T23:56:05.035Z,25.2
2019-01-31T23:58:05.754Z,25.1
